Eddyville, Kentucky
Current Conditions -  °F | °C
As of 7:15 AM on Tuesday 21 Oct 2014 (Local Time) from K5M9 Reporting Station
Clear Clear  
Wind Chill: 50°   Ceiling: Unl
Heat Index: 50°   Visibility: 10mi
Dew Point: 44°   Wind: 3mph
Humidity: 79%   Direction: 290°WNW
Pressure: 30.06"   Gusts: NA
Location:  37.09°N, 88.08°W
Report Text: K5M9 211215Z AUTO 29003KT 10SM CLR 10/07 A3006 RMK AO2 T01010067
Loading
Personal Weather Stations






























Interactive Weather Map
Tropical Storm Tracking
New forecast layout! Learn more

10-Day Weather Forecast

Advertisements
Track Severe Weather on mobile